Villeneuve-sur-Lot Airport

LFCW · Lot-et-Garonne, Nouvelle-Aquitaine, França

História da METAR LFCW · Villeneuve-sur-Lot Airport

Abaixo você vê METARs dos últimos dias. Selecione um ano para navegar pelos METARs mais antigos, a partir do ano 2007.

3 de dezembro de 2022

Hora Código Clima Temp. Visibilidade Tecto Vento METAR/SPECI
02:30
M
5 °C 5 km 4.700 ft 250° 250° 2 kt METAR LFBA 030130Z AUTO 25002KT 5000 BR FEW003 OVC047 05/05 Q1011
02:00
M
5 °C 5 km 4.700 ft 260° 260° 2 kt METAR LFBA 030100Z AUTO 26002KT 5000 BR SCT003 SCT007 OVC047 05/05 Q1011
01:30
M
5 °C 5 km 2.100 ft 260° 260° 1 kt METAR LFBA 030030Z AUTO 26001KT 5000 BR BKN021 OVC047 05/04 Q1012
01:00
M
5 °C 5 km 4.700 ft 290° 290° 2 kt METAR LFBA 030000Z AUTO 29002KT 5000 BR FEW021 OVC047 05/04 Q1012
00:30
M
5 °C 6 km 4.800 ft Var Var 1 kt METAR LFBA 022330Z AUTO VRB01KT 6000 FEW021 OVC048 05/04 Q1012
00:00
M
5 °C 5 km 4.800 ft 060° 060° 2 kt METAR LFBA 022300Z AUTO 06002KT 5000 BR FEW020 OVC048 05/04 Q1013

2 de dezembro de 2022

Hora Código Clima Temp. Visibilidade Tecto Vento METAR/SPECI
23:30
M
5 °C 6 km 2.000 ft Var Var 2 kt METAR LFBA 022230Z AUTO VRB02KT 6000 BKN020 OVC049 05/04 Q1013
23:00
M
4 °C 5 km 2.000 ft 150° 150° 1 kt METAR LFBA 022200Z AUTO 15001KT 5000 BR BKN020 OVC050 04/04 Q1013
22:30
M
5 °C 6 km 18.000 ft 230° 230° 2 kt METAR LFBA 022130Z AUTO 23002KT 6000 FEW021 SCT050 BKN180 05/04 Q1013
22:00
M
5 °C 6 km 12.000 ft 200° 200° 2 kt METAR LFBA 022100Z AUTO 20002KT 6000 FEW049 BKN120 BKN140 05/04 Q1013 NOSIG
21:30
M
5 °C 6 km - 270° 270° 1 kt METAR LFBA 022030Z AUTO 27001KT 6000 NSC 05/04 Q1014 NOSIG
21:00
M
5 °C 7 km 12.000 ft 180° 180° 2 kt METAR LFBA 022000Z AUTO 18002KT 7000 SCT048 OVC120 05/04 Q1014 NOSIG
20:30
M
6 °C 7 km 4.700 ft 260° 260° 2 kt METAR LFBA 021930Z AUTO 26002KT 7000 OVC047 06/05 Q1014 NOSIG
20:00
V
6 °C 8 km 4.800 ft Var 000° 0 kt METAR LFBA 021900Z AUTO 00000KT 8000 OVC048 06/05 Q1014 NOSIG
19:30
V
6 °C 9 km 4.600 ft Var 000° 0 kt METAR LFBA 021830Z AUTO 00000KT 9000 OVC046 06/05 Q1015 NOSIG
19:00
V
6 °C 9 km 4.700 ft 340° 340° 3 kt METAR LFBA 021800Z AUTO 34003KT 9000 OVC047 06/05 Q1015 NOSIG
18:30
V
6 °C 10 km+ 4.600 ft Var Var 2 kt METAR LFBA 021730Z AUTO VRB02KT 9999 OVC046 06/04 Q1015 NOSIG
18:00
V
6 °C 10 km+ 4.700 ft 190° 190° 2 kt METAR LFBA 021700Z AUTO 19002KT 9999 OVC047 06/05 Q1015 NOSIG
17:30
V
6 °C 10 km+ 4.800 ft Var 000° 0 kt METAR LFBA 021630Z AUTO 00000KT 9999 OVC048 06/04 Q1015 NOSIG
17:00
V
7 °C 10 km+ 4.800 ft 110° 110° 2 kt METAR LFBA 021600Z AUTO 11002KT 9999 FEW019 OVC048 07/05 Q1015 NOSIG
16:30
V
7 °C 10 km+ 4.900 ft Var Var 2 kt METAR LFBA 021530Z AUTO VRB02KT 9999 FEW012 OVC049 07/05 Q1015 NOSIG
16:00
M
7 °C 10 km+ 2.700 ft Var Var 2 kt METAR LFBA 021500Z AUTO VRB02KT 9999 FEW013 SCT018 BKN027 07/05 Q1015 TEMPO BKN012
15:30
M
7 °C 10 km+ 1.200 ft Var Var 2 kt METAR LFBA 021430Z AUTO VRB02KT 9999 BKN012 OVC017 07/05 Q1016 BECMG BKN018
15:00
M
7 °C 10 km+ 1.500 ft Var Var 2 kt METAR LFBA 021400Z AUTO VRB02KT 9999 OVC015 07/04 Q1016 NOSIG
14:30
M
7 °C 10 km+ 1.200 ft Var Var 2 kt METAR LFBA 021330Z AUTO VRB02KT 9999 OVC012 07/05 Q1016 BECMG BKN018
14:00
M
7 °C 10 km+ 1.100 ft Var Var 1 kt METAR LFBA 021300Z AUTO VRB01KT 9999 OVC011 07/05 Q1016 BECMG BKN018
13:30
I
7 °C 10 km+ 900 ft Var Var 3 kt METAR LFBA 021230Z AUTO VRB03KT 9999 OVC009 07/05 Q1016 BECMG BKN018
13:00
I
6 °C 10 km+ 900 ft Var Var 2 kt METAR LFBA 021200Z AUTO VRB02KT 9999 OVC009 06/05 Q1016 BECMG OVC012
12:30
M
6 °C 10 km+ 1.100 ft Var Var 3 kt METAR LFBA 021130Z AUTO VRB03KT 9999 OVC011 06/05 Q1017 NOSIG
12:00
I
6 °C 9 km 800 ft Var Var 3 kt METAR LFBA 021100Z AUTO VRB03KT 9000 OVC008 06/05 Q1017 TEMPO 3000 BR BECMG BKN013
11:30
I
6 °C 5 km 500 ft Var 000° 0 kt METAR LFBA 021030Z AUTO 00000KT 5000 BR BKN005 OVC009 06/05 Q1018 BECMG BKN013
11:00
L
6 °C 4,5 km 400 ft Var 000° 0 kt METAR LFBA 021000Z AUTO 00000KT 4500 BR OVC004 06/05 Q1018 NOSIG
10:30
L
5 °C 4,1 km 300 ft Var Var 1 kt METAR LFBA 020930Z AUTO VRB01KT 4100 BR OVC003 05/05 Q1018 NOSIG
10:00
L
5 °C 3,5 km 300 ft Var Var 2 kt METAR LFBA 020900Z AUTO VRB02KT 3500 BR OVC003 05/05 Q1018 BECMG 9999 NSW OVC008
09:30
L
5 °C 3,8 km 300 ft 340° 340° 2 kt METAR LFBA 020830Z AUTO 34002KT 3800 BR OVC003 05/05 Q1018 BECMG 9999 NSW OVC008
09:00
L
5 °C 4,7 km 400 ft Var Var 2 kt METAR LFBA 020800Z AUTO VRB02KT 4700 BR OVC004 05/05 Q1018 NOSIG
08:30
I
5 °C 5 km 500 ft 250° 250° 2 kt METAR LFBA 020730Z AUTO 25002KT 5000 BR OVC005 05/05 Q1018 NOSIG
08:00
L
5 °C 6 km 400 ft Var Var 2 kt METAR LFBA 020700Z AUTO VRB02KT 6000 OVC004 05/05 Q1018 TEMPO 4000 BR
07:30
L
5 °C 7 km 400 ft 310° 310° 2 kt METAR LFBA 020630Z AUTO 31002KT 7000 OVC004 05/05 Q1018 TEMPO 4000 BR
07:00
I
5 °C 7 km 500 ft 320° 320° 3 kt METAR LFBA 020600Z AUTO 32003KT 7000 OVC005 05/05 Q1018
06:30
I
5 °C 6 km 600 ft Var Var 2 kt METAR LFBA 020530Z AUTO VRB02KT 6000 OVC006 05/05 Q1018
06:00
I
5 °C 8 km 700 ft 280° 280° 2 kt METAR LFBA 020500Z AUTO 28002KT 8000 OVC007 05/05 Q1018
05:30
I
5 °C 7 km 800 ft Var Var 3 kt METAR LFBA 020430Z AUTO VRB03KT 7000 OVC008 05/05 Q1018
05:00
I
5 °C 7 km 700 ft 220° 220° 3 kt METAR LFBA 020400Z AUTO 22003KT 7000 OVC007 05/05 Q1018
04:30
I
5 °C 7 km 700 ft Var Var 3 kt METAR LFBA 020330Z AUTO VRB03KT 7000 OVC007 05/05 Q1018
04:00
I
5 °C 7 km 500 ft Var Var 2 kt METAR LFBA 020300Z AUTO VRB02KT 7000 BKN005 OVC056 05/05 Q1018
03:30
I
5 °C 7 km 500 ft Var 000° 0 kt METAR LFBA 020230Z AUTO 00000KT 7000 BKN005 OVC056 05/05 Q1019
03:00
L
5 °C 7 km 400 ft Var Var 1 kt METAR LFBA 020200Z AUTO VRB01KT 7000 BKN004 OVC056 05/05 Q1019
02:30
L
6 °C 7 km 400 ft 260° 260° 2 kt METAR LFBA 020130Z AUTO 26002KT 7000 OVC004 06/05 Q1019
02:00
I
6 °C 7 km 500 ft Var Var 2 kt METAR LFBA 020100Z AUTO VRB02KT 7000 OVC005 06/05 Q1019
01:30
I
6 °C 8 km 500 ft 270° 270° 3 kt METAR LFBA 020030Z AUTO 27003KT 8000 OVC005 06/05 Q1019
01:00
I
6 °C 8 km 600 ft 270° 270° 3 kt METAR LFBA 020000Z AUTO 27003KT 8000 OVC006 06/05 Q1020
00:30
I
6 °C 9 km 600 ft 280° 280° 2 kt METAR LFBA 012330Z AUTO 28002KT 9000 OVC006 06/05 Q1020
00:00
I
6 °C 8 km 600 ft Var Var 2 kt METAR LFBA 012300Z AUTO VRB02KT 8000 OVC006 06/05 Q1020

1 de dezembro de 2022

Hora Código Clima Temp. Visibilidade Tecto Vento METAR/SPECI
23:30
I
6 °C 7 km 500 ft 260° 260° 3 kt METAR LFBA 012230Z AUTO 26003KT 7000 OVC005 06/05 Q1020
23:00
I
6 °C 7 km 600 ft Var Var 3 kt METAR LFBA 012200Z AUTO VRB03KT 7000 OVC006 06/05 Q1020
22:30
I
6 °C 7 km 700 ft 290° 290° 2 kt METAR LFBA 012130Z AUTO 29002KT 7000 OVC007 06/05 Q1020
22:00
I
5 °C 9 km 700 ft Var Var 2 kt METAR LFBA 012100Z AUTO VRB02KT 9000 OVC007 05/05 Q1020 TEMPO 0300 BECMG VV///
21:30
I
5 °C 7 km 700 ft Var Var 2 kt METAR LFBA 012030Z AUTO VRB02KT 7000 OVC007 05/05 Q1020 TEMPO 0300 BECMG VV///
21:00
I
5 °C 7 km 600 ft Var Var 2 kt METAR LFBA 012000Z AUTO VRB02KT 7000 OVC006 05/04 Q1020 BECMG 0600 FG VV///
20:30
I
5 °C 8 km 600 ft 280° 280° 2 kt METAR LFBA 011930Z AUTO 28002KT 8000 OVC006 05/04 Q1020 BECMG 0600 FG VV///
20:00
I
5 °C 10 km+ 700 ft 280° 280° 2 kt METAR LFBA 011900Z AUTO 28002KT 9999 BKN007 BKN048 OVC058 05/04 Q1020 BECMG 0600 FG VV///
19:30
V
5 °C 10 km+ 6.000 ft Var Var 2 kt METAR LFBA 011830Z AUTO VRB02KT 9999 FEW007 OVC060 05/04 Q1020 BECMG 0600 FG VV///
19:00
I
5 °C 10 km+ 700 ft 250° 250° 3 kt METAR LFBA 011800Z AUTO 25003KT 9999 BKN007 OVC060 05/04 Q1020 BECMG 3000 BR BKN004
18:30
I
5 °C 10 km+ 900 ft 250° 250° 4 kt METAR LFBA 011730Z AUTO 25004KT 220V280 9999 OVC009 05/04 Q1020 NOSIG
18:00
I
5 °C 10 km+ 900 ft 250° 250° 4 kt METAR LFBA 011700Z AUTO 25004KT 9999 OVC009 05/04 Q1020 NOSIG
17:30
I
6 °C 10 km+ 900 ft 250° 250° 3 kt METAR LFBA 011630Z AUTO 25003KT 220V280 9999 BKN009 OVC066 06/05 Q1020 NOSIG
17:00
M
6 °C 10 km+ 1.000 ft 310° 310° 2 kt METAR LFBA 011600Z AUTO 31002KT 9999 BKN010 OVC064 06/04 Q1020 NOSIG
16:30
M
6 °C 10 km+ 1.000 ft Var Var 1 kt METAR LFBA 011530Z AUTO VRB01KT 9999 OVC010 06/04 Q1020 NOSIG
16:00
I
6 °C 10 km+ 900 ft 340° 340° 3 kt METAR LFBA 011500Z AUTO 34003KT 9999 BKN009 06/04 Q1020 NOSIG
15:30
I
5 °C 10 km+ 800 ft Var Var 2 kt METAR LFBA 011430Z AUTO VRB02KT 9999 OVC008 05/04 Q1020 NOSIG
15:00
I
5 °C 10 km+ 700 ft Var Var 3 kt METAR LFBA 011400Z AUTO VRB03KT 9999 OVC007 05/05 Q1020 NOSIG
14:30
I
5 °C 10 km+ 600 ft 270° 270° 3 kt METAR LFBA 011330Z AUTO 27003KT 230V300 9999 OVC006 05/04 Q1020 NOSIG
14:00
L
4 °C 9 km 400 ft Var Var 3 kt METAR LFBA 011300Z AUTO VRB03KT 9000 OVC004 04/04 Q1021 BECMG BKN008
13:30
L
4 °C 7 km 300 ft Var Var 2 kt METAR LFBA 011230Z AUTO VRB02KT 7000 OVC003 04/04 Q1020 BECMG BKN008
13:00
L
4 °C 4,3 km 200 ft Var Var 1 kt METAR LFBA 011200Z AUTO VRB01KT 4300 BR OVC002 04/04 Q1021 BECMG 7000 NSW BKN008
12:30
L
3 °C 1,3 km 200 ft 300° 300° 3 kt METAR LFBA 011130Z AUTO 30003KT 280V340 1900 1300 R29/1800D BR OVC002 03/03 Q1021 BECMG 9999 NSW BKN017 BKN040
12:00
L
3 °C 700 m - 300° 300° 3 kt METAR LFBA 011100Z AUTO 30003KT 270V330 0800 0700 R29/1200D FG VV/// 03/03 Q1021 BECMG 9999 NSW BKN017 BKN040
11:30
L
3 °C 550 m - 300° 300° 4 kt METAR LFBA 011030Z AUTO 30004KT 270V340 0600 0550 R29/0650D FG VV/// 03/03 Q1021 BECMG 9999 NSW BKN017 BKN040
11:00
L
3 °C 550 m - 270° 270° 4 kt METAR LFBA 011000Z AUTO 27004KT 240V310 0600 0550 R29/0900U FG VV/// 03/03 Q1021 BECMG 9999 NSW BKN008
10:30
L
2 °C 700 m - 300° 300° 4 kt METAR LFBA 010930Z AUTO 30004KT 260V340 0750 0700 R29/0900N FG VV/// 02/02 Q1021 BECMG 9999 NSW BKN008
10:00
L
2 °C 800 m - Var Var 2 kt METAR LFBA 010900Z AUTO VRB02KT 0800 R29/1100U FG VV/// 02/02 Q1021 BECMG 9999 NSW BKN008
09:30
L
2 °C 600 m - 260° 260° 3 kt METAR LFBA 010830Z AUTO 26003KT 200V310 0600 R29/0800N FG VV/// 02/02 Q1021 BECMG 9999 NSW OVC008
09:00
L
2 °C 750 m - 250° 250° 3 kt METAR LFBA 010800Z AUTO 25003KT 200V290 0800 0750 R29/1000D FG VV/// 02/02 Q1021 NOSIG
08:30
L
2 °C 900 m - Var Var 3 kt METAR LFBA 010730Z AUTO VRB03KT 0900 R29/1200N FG VV/// 02/02 Q1020 NOSIG
08:00
L
2 °C 1,1 km - 210° 210° 3 kt METAR LFBA 010700Z AUTO 21003KT 180V240 1100 R29/1300U BR VV/// 02/02 Q1020 TEMPO 0400
07:30
L
2 °C 1,2 km - 210° 210° 3 kt METAR LFBA 010630Z AUTO 21003KT 170V250 1300 1200 R29/1600N BR VV/// 02/02 Q1020 TEMPO 0400
07:00
L
2 °C 1,3 km - Var Var 3 kt METAR LFBA 010600Z AUTO VRB03KT 1400 1300 R29/1700U BR VV/// 02/02 Q1020 TEMPO 0400
06:30
L
2 °C 1,3 km - 240° 240° 3 kt METAR LFBA 010530Z AUTO 24003KT 210V300 1300 R29/1600N BR VV/// 02/02 Q1020 TEMPO 0400
06:00
L
2 °C 1 km - Var Var 2 kt METAR LFBA 010500Z AUTO VRB02KT 1100 1000 R29/1300N BR VV/// 02/02 Q1020
05:30
L
2 °C 800 m - Var Var 2 kt METAR LFBA 010430Z AUTO VRB02KT 0900 0800 R29/1000N FG VV/// 02/02 Q1020
05:00
L
2 °C 750 m - Var Var 3 kt METAR LFBA 010400Z AUTO VRB03KT 0800 0750 R29/0900D FG VV/// 02/02 Q1020
04:30
L
2 °C 700 m - Var Var 2 kt METAR LFBA 010330Z AUTO VRB02KT 0800 0700 R29/0800N FG VV/// 02/02 Q1020
04:00
L
2 °C 650 m - Var Var 3 kt METAR LFBA 010300Z AUTO VRB03KT 0700 0650 R29/0800N FG VV/// 02/02 Q1020
03:30
L
2 °C 650 m - Var Var 2 kt METAR LFBA 010230Z AUTO VRB02KT 0700 0650 R29/0800N FG VV/// 02/02 Q1020
03:00
L
2 °C 600 m - Var Var 2 kt METAR LFBA 010200Z AUTO VRB02KT 0650 0600 R29/0700N FG VV/// 02/02 Q1020
02:30
L
2 °C 500 m - Var 000° 0 kt METAR LFBA 010130Z AUTO 00000KT 0600 0500 R29/0600N FG VV/// 02/02 Q1019
02:00
L
2 °C 500 m - Var Var 1 kt METAR LFBA 010100Z AUTO VRB01KT 0600 0500 R29/0550N FG VV/// 02/02 Q1019
01:30
L
2 °C 500 m - Var Var 2 kt METAR LFBA 010030Z AUTO VRB02KT 0650 0500 R29/0650N FG VV/// 02/02 Q1019
01:00
L
2 °C 500 m - Var 000° 0 kt METAR LFBA 010000Z AUTO 00000KT 0600 0500 R29/0650N FG VV/// 02/02 Q1020
00:30
L
2 °C 450 m - Var Var 2 kt METAR LFBA 302330Z AUTO VRB02KT 0550 0450 R29/0550N FG VV/// 02/02 Q1020
00:00
L
1 °C 400 m - Var 000° 0 kt METAR LFBA 302300Z AUTO 00000KT 0450 0400 R29/0600U FG VV/// 01/01 Q1019

30 de novembro de 2022

Hora Código Clima Temp. Visibilidade Tecto Vento METAR/SPECI
23:30
L
1 °C 300 m - 300° 300° 2 kt METAR LFBA 302230Z AUTO 30002KT 0350 0300 R29/0350N FG VV/// 01/01 Q1019
23:00
L
1 °C 500 m - Var 000° 0 kt METAR LFBA 302200Z AUTO 00000KT 0550 0500 R29/0600N FG VV/// 01/01 Q1019
22:30
L
0 °C 1,3 km 300 ft Var 000° 0 kt METAR LFBA 302130Z AUTO 00000KT 2500 1300 R29/1400D BR BKN003 00/00 Q1019
22:00
L
0 °C 650 m - Var 000° 0 kt METAR LFBA 302100Z AUTO 00000KT 0750 0650 R29/0650D FZFG NSC M00/M01 Q1019 TEMPO 0300 VV///
21:30
L
0 °C 4,7 km - 290° 290° 1 kt METAR LFBA 302030Z AUTO 29001KT 4700 BR VV/// 00/M00 Q1019 TEMPO 0300
21:00
L
0 °C 600 m - Var 000° 0 kt METAR LFBA 302000Z AUTO 00000KT 4600 0600 R29/0700D BCFG VV/// 00/00 Q1019 TEMPO 0300
20:30
I
1 °C 3,2 km - Var 000° 0 kt METAR LFBA 301930Z AUTO 00000KT 3200 R29/1300U BR NSC 01/01 Q1019 TEMPO 0300 VV///
20:00
I
1 °C 1,9 km - Var Var 1 kt METAR LFBA 301900Z AUTO VRB01KT 4200 1900 R29/1100U BR FEW001 01/01 Q1018 TEMPO 0300 VV///
19:30
L
2 °C 750 m - 320° 320° 1 kt METAR LFBA 301830Z AUTO 32001KT 0900 0750 R29/0900D FG NSC 02/01 Q1018 BECMG 3000 BR BKN003
19:00
V
2 °C 9 km - 360° 360° 2 kt METAR LFBA 301800Z AUTO 36002KT 9000 NSC 02/02 Q1018 BECMG 3000 BR BKN004
18:30
V
3 °C 10 km+ - Var 000° 0 kt METAR LFBA 301730Z AUTO 00000KT CAVOK 03/02 Q1018 BECMG 3000 BR BKN004
18:00
V
4 °C 10 km+ - 210° 210° 2 kt METAR LFBA 301700Z AUTO 21002KT CAVOK 04/02 Q1018 NOSIG
17:30
V
5 °C 10 km+ - 220° 220° 2 kt METAR LFBA 301630Z AUTO 22002KT CAVOK 05/04 Q1018 NOSIG
17:00
V
6 °C 10 km+ - 200° 200° 2 kt METAR LFBA 301600Z AUTO 20002KT CAVOK 06/04 Q1018 NOSIG
16:30
V
6 °C 10 km+ - 150° 150° 3 kt METAR LFBA 301530Z AUTO 15003KT CAVOK 06/04 Q1018 NOSIG
16:00
M
7 °C 10 km+ 1.400 ft 120° 120° 3 kt METAR LFBA 301500Z AUTO 12003KT 9999 OVC014 07/05 Q1018 BECMG SCT012
15:30
M
7 °C 10 km+ 1.200 ft 110° 110° 5 kt METAR LFBA 301430Z AUTO 11005KT 9999 OVC012 07/05 Q1018 BECMG SCT012
15:00
M
6 °C 10 km+ 1.100 ft 100° 100° 5 kt METAR LFBA 301400Z AUTO 10005KT 080V140 9999 OVC011 06/05 Q1018 BECMG BKN009
14:30
I
6 °C 10 km+ 800 ft 100° 100° 3 kt METAR LFBA 301330Z AUTO 10003KT 040V140 9999 OVC008 06/05 Q1018 NOSIG
14:00
I
6 °C 10 km+ 800 ft Var Var 2 kt METAR LFBA 301300Z AUTO VRB02KT 9999 OVC008 06/05 Q1018 NOSIG
13:30
I
5 °C 10 km+ 600 ft Var Var 3 kt METAR LFBA 301230Z AUTO VRB03KT 9999 OVC006 05/05 Q1019 NOSIG
13:00
I
5 °C 10 km+ 500 ft 020° 020° 4 kt METAR LFBA 301200Z AUTO 02004KT 350V050 9999 OVC005 05/04 Q1019 NOSIG
12:30
I
5 °C 10 km+ 500 ft Var 000° 0 kt METAR LFBA 301130Z AUTO 00000KT 9999 OVC005 05/04 Q1019 BECMG BKN011
12:00
L
5 °C 10 km+ 400 ft 040° 040° 3 kt METAR LFBA 301100Z AUTO 04003KT 350V080 9999 OVC004 05/04 Q1019 BECMG OVC006
11:30
L
5 °C 10 km+ 300 ft Var Var 2 kt METAR LFBA 301030Z AUTO VRB02KT 9999 OVC003 05/05 Q1020 BECMG OVC006
11:00
L
5 °C 8 km 300 ft 170° 170° 1 kt METAR LFBA 301000Z AUTO 17001KT 8000 OVC003 05/05 Q1020 BECMG OVC006

Nós e terceiros acompanhamos seu comportamento na internet em nosso site com cookies. Se você continuar, nós assumimos que você concorda com nosso política de cookies.